Airfield :
LOGIN :

Register | Disclaimer

   EN    FR    IT 

 










Legend :    VFR   Marginal VFR   IFR   Intensive IFR   Very Intensive IFR
Visi :
Ceiling :
>= 8 km
>= 3000ft
5 to 8 km
1000 to 3000 ft
1500m to 5 km
500 to 1000 ft
800 to 1500m
200 to 500 ft
< 800m
< 200 ft
Symbols :   Thunderstorms  Fog  Heavy snow  Heavy precipitations  Wind > 20 kt
SIGMETs :     Misc.  Thunderstorms  Icing  Turbulence  Mountain Waves  Volcanic Ashes






- Airport Elevation : 203 ft
- IATA code : XMJ


LFBM - Mont-De-Marsan

CURRENT METAR :
  • 011430Z AUTO VRB03KT 9999 OVC012 06/04 Q1021 BECMG SCT010 BKN015

EXPIRED METARs :
  • 011400Z AUTO 01003KT 310V100 9999 OVC012 05/04 Q1021 BECMG SCT015
  • 011330Z AUTO VRB02KT 9999 OVC007 05/04 Q1021 BECMG SCT015
  • 011300Z AUTO VRB02KT 9999 OVC007 05/04 Q1021 BECMG SCT015
  • 011230Z AUTO VRB01KT 9999 OVC006 05/04 Q1021 BECMG SCT015
  • 011200Z AUTO 00000KT 9999 OVC005 04/04 Q1021 NOSIG
  • 011130Z AUTO VRB02KT 9999 OVC004 04/04 Q1021 BECMG BKN006

TAF AMD TAF LFBM
Valid from the 01 at 10:00 until the 02 at 09:00 UTC


011005Z 0110/0209 03003KT 2000 BR BKN002
TEMPO 0110/0112 0900 FG VV///
BECMG 0112/0114 6000 NSW BKN006
BECMG 0114/0115 SCT015
BECMG 0119/0121 0800 FG



MET'MAP, your aeronautical weather chart ! - Copyright ORBIFLY December 2007 - Disclaimer

ORBIFLY MET'MAP TEAM :

Programming & Development : Alexandra Zaïnal
Original concept : Baudouin d'Aumeries
Technical & hardware support : Manuel Goepfert
Assistance : Marc-Olivier Méhu




SOURCES & CREDITS :

   NOAA